Time;durP1;ratioP1;P1;durP2;ratioP2;P2;SDS_P1;SDS_P2;PMS_P1;PMS_P2;Temp;Humidity;BMP_temperature;BMP_pressure;BME280_temperature;BME280_humidity;BME280_pressure;Samples;Min_cycle;Max_cycle;Signal;HPM_P1;HPM_P2
2023/03/08 00:01:18;;;;;;;46.80;13.55;;;9.50;75.60;;;;;;5044355;28;20106;-54
2023/03/08 00:03:43;;;;;;;50.17;12.55;;;9.50;75.60;;;;;;5044481;28;20029;-55
2023/03/08 00:06:13;;;;;;;64.90;13.13;;;9.60;76.30;;;;;;5044482;28;20538;-56
2023/03/08 00:08:39;;;;;;;58.35;14.13;;;9.50;75.70;;;;;;5044511;28;20029;-56
2023/03/08 00:11:06;;;;;;;49.30;13.07;;;9.50;75.80;;;;;;5044231;28;20032;-56
2023/03/08 00:13:31;;;;;;;60.55;13.52;;;9.50;75.80;;;;;;5044443;28;20025;-55
2023/03/08 00:16:01;;;;;;;51.63;13.30;;;9.40;76.40;;;;;;5043253;28;20442;-56
2023/03/08 00:18:26;;;;;;;49.75;13.10;;;9.40;75.80;;;;;;5043062;28;20055;-55
2023/03/08 00:21:06;;;;;;;50.00;12.88;;;9.50;75.90;;;;;;5044519;28;20179;-56
2023/03/08 00:23:31;;;;;;;44.15;12.98;;;9.40;75.80;;;;;;5045246;28;20115;-56
2023/03/08 00:25:57;;;;;;;53.20;12.90;;;9.40;75.90;;;;;;5048110;28;20099;-55
2023/03/08 00:28:23;;;;;;;50.63;13.20;;;9.40;75.90;;;;;;5048006;28;20480;-56
2023/03/08 00:31:02;;;;;;;47.22;12.70;;;9.40;75.90;;;;;;5046523;28;20124;-55
2023/03/08 00:33:27;;;;;;;49.22;12.75;;;9.50;76.00;;;;;;5048006;28;20045;-55
2023/03/08 00:36:07;;;;;;;50.13;12.43;;;9.40;75.90;;;;;;5047888;28;20034;-56
2023/03/08 00:38:34;;;;;;;50.30;11.95;;;9.30;75.90;;;;;;5047882;28;20029;-56
2023/03/08 00:40:59;;;;;;;37.75;11.38;;;9.30;75.90;;;;;;5047879;28;20112;-56
2023/03/08 00:43:25;;;;;;;55.92;13.38;;;9.30;76.10;;;;;;5047848;28;20029;-56
2023/03/08 00:45:50;;;;;;;41.08;11.60;;;9.30;76.10;;;;;;5047458;28;20044;-56
2023/03/08 00:48:16;;;;;;;44.05;11.60;;;9.30;76.20;;;;;;5047736;28;20036;-56
2023/03/08 00:50:41;;;;;;;51.67;12.02;;;9.30;76.20;;;;;;5047513;28;20030;-56
2023/03/08 00:53:07;;;;;;;38.85;11.90;;;9.40;76.30;;;;;;5045893;28;20460;-56
2023/03/08 00:55:33;;;;;;;40.35;12.10;;;9.30;76.30;;;;;;5047564;28;20044;-55
2023/03/08 00:57:58;;;;;;;40.03;11.77;;;9.20;76.20;;;;;;5047620;28;20025;-56
2023/03/08 01:00:24;;;;;;;44.50;12.52;;;9.20;76.90;;;;;;5047367;28;20029;-56
2023/03/08 01:02:50;;;;;;;37.75;11.80;;;9.20;76.30;;;;;;5047293;28;20025;-56
2023/03/08 01:05:15;;;;;;;42.85;11.15;;;9.20;76.30;;;;;;5047265;28;20478;-56
2023/03/08 01:07:41;;;;;;;34.03;11.18;;;9.20;77.00;;;;;;5047327;28;20014;-56
2023/03/08 01:10:07;;;;;;;40.67;11.48;;;9.20;76.40;;;;;;5047462;28;20064;-56
2023/03/08 01:12:33;;;;;;;47.53;12.43;;;9.20;76.50;;;;;;5045796;28;20036;-56
2023/03/08 01:14:59;;;;;;;43.75;11.90;;;9.20;76.40;;;;;;5047034;28;20029;-56
2023/03/08 01:17:24;;;;;;;40.85;11.25;;;9.10;76.50;;;;;;5047047;28;20064;-55
2023/03/08 01:19:50;;;;;;;34.00;11.57;;;9.20;76.60;;;;;;5047144;28;20105;-56
2023/03/08 01:22:15;;;;;;;29.08;11.45;;;9.20;76.60;;;;;;5046978;28;20064;-56
2023/03/08 01:24:47;;;;;;;36.05;10.95;;;9.10;76.60;;;;;;5046927;28;20045;-56
2023/03/08 01:27:13;;;;;;;45.08;12.43;;;9.10;76.60;;;;;;5046945;28;20025;-56
2023/03/08 01:29:39;;;;;;;30.77;11.13;;;9.10;76.60;;;;;;5045529;28;20033;-56
2023/03/08 01:32:04;;;;;;;32.33;10.50;;;9.10;76.60;;;;;;5046941;28;20048;-56
2023/03/08 01:34:30;;;;;;;28.45;11.15;;;9.10;76.70;;;;;;5046704;28;20044;-56
2023/03/08 01:36:56;;;;;;;37.40;10.30;;;9.10;76.70;;;;;;5046705;28;20060;-56
2023/03/08 01:39:21;;;;;;;37.60;11.30;;;9.00;76.70;;;;;;5046612;28;20045;-56
2023/03/08 01:41:47;;;;;;;29.80;10.38;;;9.00;76.70;;;;;;5046739;28;20045;-56
2023/03/08 01:44:16;;;;;;;44.17;11.00;;;9.00;76.70;;;;;;5046481;28;20083;-56
2023/03/08 01:46:42;;;;;;;35.28;11.15;;;9.00;76.60;;;;;;5046985;28;20021;-56
2023/03/08 01:49:13;;;;;;;34.13;11.07;;;9.00;76.70;;;;;;5046340;28;20414;-56
2023/03/08 01:51:50;;;;;;;34.50;10.43;;;9.00;76.70;;;;;;5047002;28;20075;-55
2023/03/08 01:54:22;;;;;;;37.42;10.65;;;9.00;77.40;;;;;;5045392;28;20025;-55
2023/03/08 01:56:48;;;;;;;42.83;10.25;;;9.00;76.70;;;;;;5029453;28;20048;-56
2023/03/08 01:59:14;;;;;;;35.00;10.95;;;9.00;76.80;;;;;;5046277;28;20034;-56
2023/03/08 02:01:40;;;;;;;33.15;9.70;;;9.00;76.90;;;;;;5044922;28;20026;-56
2023/03/08 02:04:06;;;;;;;27.73;10.27;;;9.00;76.80;;;;;;5046239;28;20033;-56
2023/03/08 02:06:31;;;;;;;23.98;10.23;;;9.00;76.80;;;;;;5046184;28;20171;-55
2023/03/08 02:08:57;;;;;;;28.20;9.60;;;9.00;76.90;;;;;;5045117;28;20470;-56
2023/03/08 02:11:23;;;;;;;20.58;9.02;;;9.00;76.90;;;;;;5046024;28;20438;-56
2023/03/08 02:13:49;;;;;;;26.15;9.45;;;9.00;76.80;;;;;;5044885;28;20029;-56
2023/03/08 02:16:14;;;;;;;33.85;9.30;;;9.00;76.90;;;;;;5046063;28;20053;-56
2023/03/08 02:19:00;;;;;;;31.15;9.80;;;9.00;76.90;;;;;;5045925;28;20041;-56
2023/03/08 02:21:27;;;;;;;29.05;9.68;;;9.00;76.90;;;;;;5044632;28;20171;-56
2023/03/08 02:23:52;;;;;;;28.92;9.75;;;8.90;76.90;;;;;;5044628;28;20033;-56
2023/03/08 02:26:18;;;;;;;25.55;10.05;;;9.10;77.00;;;;;;5045671;28;20034;-55
2023/03/08 02:28:44;;;;;;;20.90;9.82;;;9.10;77.00;;;;;;5044537;28;20029;-56
2023/03/08 02:31:10;;;;;;;20.75;9.68;;;8.90;76.90;;;;;;5045756;28;20094;-56
2023/03/08 02:33:36;;;;;;;23.10;8.93;;;8.90;77.00;;;;;;5045608;28;20021;-56
2023/03/08 02:36:02;;;;;;;29.45;9.90;;;8.90;77.00;;;;;;5045556;28;20032;-56
2023/03/08 02:38:27;;;;;;;36.25;10.48;;;8.90;77.00;;;;;;5045723;28;20108;-56
2023/03/08 02:40:53;;;;;;;21.75;9.95;;;8.90;77.00;;;;;;5045642;28;20022;-56
2023/03/08 02:43:18;;;;;;;29.58;9.25;;;8.90;77.70;;;;;;5044070;28;20102;-55
2023/03/08 02:45:44;;;;;;;28.48;9.73;;;8.90;77.80;;;;;;5045239;28;20041;-56
2023/03/08 02:48:10;;;;;;;23.92;9.73;;;8.90;77.20;;;;;;5045389;28;20039;-55
2023/03/08 02:50:35;;;;;;;29.77;9.95;;;8.80;77.80;;;;;;5045330;28;20029;-56
2023/03/08 02:53:02;;;;;;;20.98;9.32;;;8.90;77.20;;;;;;5045398;28;20049;-56
2023/03/08 02:55:28;;;;;;;24.40;9.13;;;8.90;77.20;;;;;;5045189;28;20041;-56
2023/03/08 02:57:53;;;;;;;22.98;9.15;;;8.80;77.20;;;;;;5045901;28;20029;-55
2023/03/08 03:00:19;;;;;;;23.90;9.88;;;8.80;77.20;;;;;;5045721;28;20198;-56
2023/03/08 03:02:44;;;;;;;25.25;9.82;;;8.90;77.20;;;;;;5045329;28;20040;-56
2023/03/08 03:05:10;;;;;;;26.95;9.73;;;8.80;77.20;;;;;;5045248;28;20171;-55
2023/03/08 03:07:40;;;;;;;20.48;9.00;;;8.80;77.20;;;;;;5045227;28;20037;-55
2023/03/08 03:10:07;;;;;;;27.23;9.48;;;8.80;77.30;;;;;;5045294;28;20178;-56
2023/03/08 03:12:32;;;;;;;23.52;9.77;;;8.80;77.40;;;;;;5045057;28;20025;-55
2023/03/08 03:15:03;;;;;;;26.23;9.70;;;8.80;77.40;;;;;;5044921;28;20026;-55
2023/03/08 03:17:29;;;;;;;25.90;10.07;;;8.80;77.40;;;;;;5044961;28;20026;-55
2023/03/08 03:19:55;;;;;;;22.70;10.40;;;8.80;77.40;;;;;;5043677;28;20074;-56
2023/03/08 03:22:20;;;;;;;22.75;9.93;;;8.80;77.50;;;;;;5044995;28;20033;-55
2023/03/08 03:24:46;;;;;;;22.75;10.23;;;8.80;77.50;;;;;;5044831;28;20032;-55
2023/03/08 03:27:11;;;;;;;23.15;9.45;;;8.80;77.50;;;;;;5043480;28;20034;-55
2023/03/08 03:29:37;;;;;;;29.70;10.48;;;8.80;77.50;;;;;;5045315;28;20421;-56
2023/03/08 03:32:03;;;;;;;24.92;9.63;;;8.80;77.50;;;;;;5045616;28;20045;-55
2023/03/08 03:34:28;;;;;;;22.10;10.05;;;8.80;77.50;;;;;;5045108;28;20026;-56
2023/03/08 03:36:54;;;;;;;21.98;10.10;;;8.80;78.30;;;;;;5044924;28;20076;-55
2023/03/08 03:39:20;;;;;;;21.73;10.13;;;8.80;77.60;;;;;;5045351;28;20030;-56
2023/03/08 03:41:45;;;;;;;24.77;10.90;;;8.80;77.60;;;;;;5045174;28;20351;-57
2023/03/08 03:44:11;;;;;;;20.88;10.23;;;8.70;77.60;;;;;;5045283;28;20097;-57
2023/03/08 03:46:36;;;;;;;21.23;9.65;;;8.80;77.60;;;;;;5044740;28;20037;-57
2023/03/08 03:49:02;;;;;;;17.83;9.93;;;8.70;77.60;;;;;;5043248;28;20060;-57
2023/03/08 03:51:28;;;;;;;22.17;10.35;;;8.80;78.20;;;;;;5043355;28;20042;-57
2023/03/08 03:53:53;;;;;;;25.98;11.18;;;8.70;77.60;;;;;;5043208;28;20065;-57
2023/03/08 03:56:23;;;;;;;24.15;10.65;;;8.70;77.90;;;;;;5044484;28;20130;-57
2023/03/08 03:58:49;;;;;;;23.65;10.57;;;8.80;78.10;;;;;;5046361;28;20026;-58
2023/03/08 04:01:25;;;;;;;23.83;10.48;;;8.80;78.30;;;;;;5047127;28;20048;-57
2023/03/08 04:03:51;;;;;;;26.58;10.45;;;8.70;79.10;;;;;;5048658;28;20031;-58
2023/03/08 04:06:18;;;;;;;26.20;10.60;;;8.70;78.60;;;;;;5048221;28;20057;-57
2023/03/08 04:08:44;;;;;;;23.75;10.73;;;8.80;78.80;;;;;;5048531;28;20036;-57
2023/03/08 04:11:21;;;;;;;28.75;10.95;;;8.80;79.70;;;;;;5048472;28;20446;-57
2023/03/08 04:13:47;;;;;;;21.13;9.60;;;8.80;79.10;;;;;;5048436;28;20026;-57
2023/03/08 04:16:16;;;;;;;24.02;10.35;;;8.70;79.10;;;;;;5047049;28;20032;-57
2023/03/08 04:18:42;;;;;;;23.70;10.15;;;8.70;78.70;;;;;;5048308;28;20040;-57
2023/03/08 04:21:07;;;;;;;25.45;9.38;;;8.70;78.50;;;;;;5048049;28;20366;-57
2023/03/08 04:23:33;;;;;;;17.33;8.80;;;8.70;78.40;;;;;;5048183;28;20033;-57
2023/03/08 04:26:00;;;;;;;49.55;12.73;;;8.70;78.50;;;;;;5047902;28;20034;-57
2023/03/08 04:28:25;;;;;;;42.45;12.50;;;8.70;78.50;;;;;;5048057;28;20020;-57
2023/03/08 04:30:51;;;;;;;32.92;10.68;;;8.80;78.60;;;;;;5048112;28;20025;-57
2023/03/08 04:33:16;;;;;;;37.70;10.82;;;8.70;78.50;;;;;;5047794;28;20033;-57
2023/03/08 04:35:42;;;;;;;25.80;10.25;;;8.70;79.10;;;;;;5048124;28;20329;-57
2023/03/08 04:38:08;;;;;;;29.45;10.20;;;8.70;78.50;;;;;;5048077;28;20044;-57
2023/03/08 04:41:00;;;;;;;37.03;10.80;;;8.70;78.50;;;;;;5047965;28;20045;-57
2023/03/08 04:43:19;;;;;;;32.95;10.75;;;8.70;78.50;;;;;;5047515;28;20049;-57
2023/03/08 04:45:44;;;;;;;29.10;10.02;;;8.70;78.50;;;;;;5047759;28;20120;-57
2023/03/08 04:48:10;;;;;;;26.08;9.45;;;8.70;78.50;;;;;;5047484;28;20030;-57
2023/03/08 04:50:35;;;;;;;37.55;10.50;;;8.80;78.60;;;;;;5062921;28;20039;-57
2023/03/08 04:53:01;;;;;;;24.58;8.93;;;8.70;78.50;;;;;;5029965;28;20021;-57
2023/03/08 04:55:26;;;;;;;49.08;12.55;;;8.70;78.50;;;;;;5047783;28;20040;-57
2023/03/08 04:57:52;;;;;;;41.47;12.05;;;8.70;78.50;;;;;;5047806;28;20056;-58
2023/03/08 05:00:17;;;;;;;36.75;9.70;;;8.70;78.50;;;;;;5047822;28;20026;-58
2023/03/08 05:02:43;;;;;;;58.47;10.80;;;8.70;78.50;;;;;;5047686;28;20035;-57
2023/03/08 05:05:09;;;;;;;30.90;9.45;;;8.70;79.10;;;;;;5045986;28;20538;-57
2023/03/08 05:07:34;;;;;;;28.60;10.65;;;8.70;78.50;;;;;;5047606;28;20021;-57
2023/03/08 05:10:00;;;;;;;26.83;10.38;;;8.70;78.50;;;;;;5046711;28;20081;-57
2023/03/08 05:12:25;;;;;;;28.02;9.60;;;8.60;78.50;;;;;;5047265;28;20026;-57
2023/03/08 05:14:51;;;;;;;29.75;9.80;;;8.60;78.50;;;;;;5047234;28;20443;-57
2023/03/08 05:17:16;;;;;;;32.20;9.82;;;8.60;78.40;;;;;;5047471;28;20033;-57
2023/03/08 05:19:42;;;;;;;23.20;9.52;;;8.60;78.40;;;;;;5047154;28;20025;-58
2023/03/08 05:22:07;;;;;;;25.83;9.10;;;8.60;78.40;;;;;;5045941;28;20049;-57
2023/03/08 05:24:33;;;;;;;22.98;9.00;;;8.60;78.50;;;;;;5047252;28;20028;-57
2023/03/08 05:26:59;;;;;;;25.75;8.43;;;8.60;79.10;;;;;;5046917;28;20094;-57
2023/03/08 05:29:24;;;;;;;23.70;9.05;;;8.70;78.50;;;;;;5046871;28;20032;-57
2023/03/08 05:31:50;;;;;;;29.20;9.30;;;8.70;78.70;;;;;;5047609;28;20113;-58
2023/03/08 05:34:15;;;;;;;27.65;9.05;;;8.60;79.10;;;;;;5046820;28;20017;-57
2023/03/08 05:36:41;;;;;;;25.55;8.80;;;8.60;79.30;;;;;;5046891;28;20057;-57
2023/03/08 05:39:07;;;;;;;26.27;8.85;;;8.60;79.20;;;;;;5045662;28;20030;-57
2023/03/08 05:41:32;;;;;;;19.80;8.82;;;8.60;79.80;;;;;;5047001;28;20057;-57
2023/03/08 05:44:00;;;;;;;19.67;7.35;;;8.60;79.20;;;;;;5046941;28;20033;-57
2023/03/08 05:46:25;;;;;;;21.67;8.40;;;8.60;79.10;;;;;;5046764;28;20129;-58
2023/03/08 05:48:51;;;;;;;20.30;7.60;;;8.60;79.10;;;;;;5046984;28;20403;-57
2023/03/08 05:51:17;;;;;;;18.98;8.57;;;8.60;79.20;;;;;;5046708;28;20037;-57
2023/03/08 05:53:43;;;;;;;17.88;8.05;;;8.60;79.20;;;;;;5045873;28;20033;-57
2023/03/08 05:56:16;;;;;;;22.60;7.85;;;8.70;79.40;;;;;;5046421;28;20084;-57
2023/03/08 05:58:42;;;;;;;15.45;7.72;;;8.60;79.40;;;;;;5046581;28;20117;-57
2023/03/08 06:01:18;;;;;;;15.18;7.65;;;8.60;79.40;;;;;;5046484;28;20136;-57
2023/03/08 06:03:45;;;;;;;18.60;7.55;;;8.60;79.50;;;;;;5045120;28;20037;-57
2023/03/08 06:06:10;;;;;;;19.60;7.60;;;8.60;79.50;;;;;;5046127;28;20040;-57
2023/03/08 06:08:36;;;;;;;16.13;7.47;;;8.60;79.40;;;;;;5046307;28;20021;-57
2023/03/08 06:11:02;;;;;;;20.83;8.40;;;8.60;79.40;;;;;;5046245;28;20051;-57
2023/03/08 06:13:27;;;;;;;14.10;7.35;;;8.60;79.40;;;;;;5044737;28;20496;-57
2023/03/08 06:15:57;;;;;;;19.90;7.35;;;8.60;79.50;;;;;;5044846;28;20216;-57
2023/03/08 06:18:22;;;;;;;20.50;7.35;;;8.70;79.50;;;;;;5046214;28;20061;-58
2023/03/08 06:20:58;;;;;;;13.85;6.95;;;8.60;79.50;;;;;;5045376;28;20033;-57
2023/03/08 06:23:25;;;;;;;16.20;7.05;;;8.60;79.50;;;;;;5044690;28;20038;-57
2023/03/08 06:25:50;;;;;;;16.55;7.28;;;8.60;79.40;;;;;;5045780;28;20036;-57
2023/03/08 06:28:16;;;;;;;16.95;7.78;;;8.60;79.50;;;;;;5046030;28;20049;-57
2023/03/08 06:30:42;;;;;;;13.18;6.75;;;8.60;79.50;;;;;;5045634;28;20025;-58
2023/03/08 06:33:07;;;;;;;18.73;7.55;;;8.60;79.50;;;;;;5045861;28;20036;-57
2023/03/08 06:35:33;;;;;;;14.68;7.45;;;8.60;79.50;;;;;;5045825;28;20025;-57
2023/03/08 06:37:58;;;;;;;14.52;6.38;;;8.60;79.40;;;;;;5045988;28;20049;-57
2023/03/08 06:40:24;;;;;;;16.98;6.97;;;8.60;79.40;;;;;;5045762;28;20035;-57
2023/03/08 06:42:49;;;;;;;15.77;6.90;;;8.60;79.40;;;;;;5045909;28;20036;-57
2023/03/08 06:45:15;;;;;;;17.85;7.40;;;8.60;79.30;;;;;;5045750;28;20029;-57
2023/03/08 06:47:41;;;;;;;16.52;7.03;;;8.60;79.40;;;;;;5045813;28;20084;-57
2023/03/08 06:50:07;;;;;;;20.13;7.07;;;8.60;79.30;;;;;;5045354;28;20091;-57
2023/03/08 06:52:36;;;;;;;15.85;6.72;;;8.60;79.30;;;;;;5045593;28;20045;-58
2023/03/08 06:55:03;;;;;;;26.50;6.95;;;8.60;79.30;;;;;;5045418;28;20045;-57
2023/03/08 06:57:28;;;;;;;17.33;7.32;;;8.60;79.40;;;;;;5044144;28;20092;-58
2023/03/08 06:59:54;;;;;;;12.48;6.53;;;8.70;79.50;;;;;;5045317;28;20022;-57
2023/03/08 07:02:19;;;;;;;17.15;6.95;;;8.70;80.00;;;;;;5045446;28;20465;-56
2023/03/08 07:04:45;;;;;;;13.20;6.53;;;8.60;79.30;;;;;;5045391;28;20025;-57
2023/03/08 07:07:10;;;;;;;16.67;6.63;;;8.70;79.40;;;;;;5043610;28;20053;-58
2023/03/08 07:09:36;;;;;;;23.63;6.95;;;8.60;79.40;;;;;;5045251;28;20021;-57
2023/03/08 07:12:02;;;;;;;14.45;6.82;;;8.60;79.40;;;;;;5045028;28;20099;-57
2023/03/08 07:14:27;;;;;;;20.00;7.10;;;8.60;79.40;;;;;;5045035;28;20049;-57
2023/03/08 07:16:53;;;;;;;33.13;8.57;;;8.60;79.40;;;;;;5043566;28;20033;-57
2023/03/08 07:19:19;;;;;;;19.90;7.85;;;8.60;79.50;;;;;;5045123;28;20037;-57
2023/03/08 07:21:44;;;;;;;24.05;7.40;;;8.60;79.40;;;;;;5045051;28;20040;-57
2023/03/08 07:24:10;;;;;;;15.15;7.30;;;8.70;79.50;;;;;;5045063;28;20017;-57
2023/03/08 07:26:35;;;;;;;15.02;6.63;;;8.60;79.40;;;;;;5044808;28;20038;-58
2023/03/08 07:29:01;;;;;;;20.67;7.00;;;8.70;79.40;;;;;;5044800;28;20021;-57
2023/03/08 07:31:28;;;;;;;16.52;6.82;;;8.70;79.50;;;;;;5044773;28;20112;-57
2023/03/08 07:33:54;;;;;;;25.05;7.07;;;8.70;79.40;;;;;;5043269;28;20470;-57
2023/03/08 07:36:20;;;;;;;25.27;7.35;;;8.70;79.40;;;;;;5044813;28;20045;-57
2023/03/08 07:38:46;;;;;;;28.15;6.70;;;8.70;79.50;;;;;;5044677;28;20025;-57
2023/03/08 07:41:11;;;;;;;19.92;6.55;;;8.70;79.50;;;;;;5043213;28;20026;-57
2023/03/08 07:43:37;;;;;;;19.92;6.32;;;8.70;79.50;;;;;;5044860;28;20040;-57
2023/03/08 07:46:03;;;;;;;15.07;6.28;;;8.70;79.50;;;;;;5044461;28;20057;-57
2023/03/08 07:48:29;;;;;;;49.72;8.90;;;8.70;79.50;;;;;;5044395;28;20024;-57
2023/03/08 07:51:02;;;;;;;25.30;7.60;;;8.80;79.60;;;;;;5045276;28;20025;-57
2023/03/08 07:53:29;;;;;;;23.08;6.15;;;8.80;79.60;;;;;;5044749;28;20026;-57
2023/03/08 07:55:56;;;;;;;19.35;6.20;;;8.80;79.50;;;;;;5044763;28;20033;-57
2023/03/08 07:58:22;;;;;;;17.40;6.10;;;8.80;79.50;;;;;;5044709;28;20056;-57
2023/03/08 08:00:47;;;;;;;16.35;6.35;;;8.80;79.50;;;;;;5044565;28;20030;-57
2023/03/08 08:03:13;;;;;;;21.65;5.80;;;8.80;79.50;;;;;;5044378;28;20060;-57
2023/03/08 08:05:38;;;;;;;11.77;5.38;;;8.80;79.50;;;;;;5043561;28;20041;-57
2023/03/08 08:08:04;;;;;;;17.45;5.72;;;8.80;79.50;;;;;;5043894;28;20063;-58
2023/03/08 08:10:30;;;;;;;16.20;6.43;;;8.80;79.50;;;;;;5044532;28;20044;-58
2023/03/08 08:12:55;;;;;;;16.02;5.35;;;8.80;79.50;;;;;;5044578;28;20053;-58
2023/03/08 08:15:24;;;;;;;18.65;5.65;;;8.80;79.50;;;;;;5044238;28;20116;-58
2023/03/08 08:17:49;;;;;;;23.40;5.35;;;8.80;79.50;;;;;;5044466;28;20047;-58
2023/03/08 08:20:15;;;;;;;12.52;5.13;;;8.80;79.50;;;;;;5044252;28;20077;-58
2023/03/08 08:22:40;;;;;;;17.25;5.60;;;8.80;79.50;;;;;;5044121;28;20040;-58
2023/03/08 08:25:06;;;;;;;16.25;5.60;;;8.90;79.50;;;;;;5044093;28;20453;-57
2023/03/08 08:27:32;;;;;;;19.25;6.40;;;8.90;79.60;;;;;;5044164;28;20095;-58
2023/03/08 08:29:58;;;;;;;18.25;5.00;;;8.90;79.70;;;;;;5044087;28;20060;-58
2023/03/08 08:32:24;;;;;;;12.70;5.40;;;8.90;79.80;;;;;;5043926;28;20033;-58
2023/03/08 08:34:49;;;;;;;17.73;5.38;;;8.90;79.80;;;;;;5043879;28;20018;-58
2023/03/08 08:37:15;;;;;;;11.95;5.28;;;8.90;79.80;;;;;;5044205;28;20088;-57
2023/03/08 08:39:41;;;;;;;15.77;5.63;;;8.90;79.80;;;;;;5043980;28;20067;-57
2023/03/08 08:42:06;;;;;;;17.67;5.00;;;8.90;79.80;;;;;;5044382;28;20042;-57
2023/03/08 08:44:32;;;;;;;16.30;5.30;;;8.90;79.80;;;;;;5043863;28;20021;-58
2023/03/08 08:46:57;;;;;;;12.30;5.65;;;8.90;79.80;;;;;;5047739;28;20485;-57
2023/03/08 08:49:23;;;;;;;14.32;4.93;;;9.00;79.90;;;;;;5047509;28;20464;-57
2023/03/08 08:51:49;;;;;;;17.60;5.10;;;8.90;79.90;;;;;;5047436;28;20044;-58
2023/03/08 08:54:14;;;;;;;17.35;5.55;;;9.00;80.00;;;;;;5047515;28;20085;-58
2023/03/08 08:56:42;;;;;;;13.27;4.65;;;9.00;80.10;;;;;;5047513;28;20116;-58
2023/03/08 08:59:09;;;;;;;18.88;4.80;;;9.00;80.20;;;;;;5047675;28;20045;-58
2023/03/08 09:01:35;;;;;;;10.00;4.93;;;9.00;80.20;;;;;;5055659;28;20037;-58
2023/03/08 09:04:01;;;;;;;11.32;4.97;;;9.00;80.20;;;;;;5040703;28;20496;-58
2023/03/08 09:06:27;;;;;;;13.50;4.95;;;9.10;80.40;;;;;;5043471;28;20036;-58
2023/03/08 09:08:55;;;;;;;15.48;5.22;;;9.00;80.50;;;;;;5070724;28;20032;-57
2023/03/08 09:11:21;;;;;;;11.20;4.80;;;9.00;80.50;;;;;;5059506;28;20038;-58
2023/03/08 09:13:47;;;;;;;11.75;4.90;;;9.00;80.80;;;;;;5053813;28;20101;-58
2023/03/08 09:16:34;;;;;;;11.48;4.80;;;9.00;80.70;;;;;;5043879;28;20033;-58
2023/03/08 09:19:01;;;;;;;6.28;4.10;;;9.00;80.60;;;;;;5041589;28;20025;-58
2023/03/08 09:21:27;;;;;;;10.88;4.72;;;9.00;80.70;;;;;;5046170;28;20049;-58
2023/03/08 09:23:53;;;;;;;9.20;4.57;;;9.00;80.60;;;;;;5054552;28;20017;-58
2023/03/08 09:26:19;;;;;;;8.95;4.63;;;9.10;80.70;;;;;;5053999;28;20037;-57
2023/03/08 09:28:44;;;;;;;9.90;5.03;;;9.10;80.90;;;;;;5058600;28;20043;-58
2023/03/08 09:31:13;;;;;;;12.80;4.22;;;9.10;80.90;;;;;;5051449;28;20022;-58
2023/03/08 09:33:40;;;;;;;8.05;4.10;;;9.10;80.90;;;;;;5048754;28;20051;-58
2023/03/08 09:36:06;;;;;;;12.95;4.57;;;9.10;80.90;;;;;;5049523;28;20025;-57
2023/03/08 09:38:32;;;;;;;9.68;3.83;;;9.10;81.00;;;;;;5056884;28;20030;-58
2023/03/08 09:41:45;;;;;;;11.35;4.20;;;9.10;80.90;;;;;;5059679;28;20175;-58
2023/03/08 09:44:44;;;;;;;8.15;4.28;;;9.10;80.90;;;;;;5064566;28;20075;-58
2023/03/08 09:47:30;;;;;;;17.35;5.00;;;9.10;81.20;;;;;;5042779;28;20045;-58
2023/03/08 09:50:34;;;;;;;13.63;4.47;;;9.20;81.60;;;;;;5047198;28;20021;-59
2023/03/08 09:53:06;;;;;;;12.77;4.72;;;9.20;81.80;;;;;;5065376;28;20500;-58
2023/03/08 09:55:33;;;;;;;12.27;4.55;;;9.20;82.20;;;;;;5065728;28;20032;-58
2023/03/08 09:58:06;;;;;;;16.75;4.90;;;9.20;82.20;;;;;;5061305;28;20037;-58
2023/03/08 10:00:34;;;;;;;12.80;4.32;;;9.20;82.20;;;;;;5054783;28;20029;-58
2023/03/08 10:03:15;;;;;;;17.50;4.40;;;9.20;82.40;;;;;;5035914;28;20077;-58
2023/03/08 10:06:02;;;;;;;9.93;4.93;;;9.20;82.60;;;;;;5025694;28;20063;-58
2023/03/08 10:08:46;;;;;;;18.35;5.18;;;9.20;82.80;;;;;;5025750;28;20034;-58
2023/03/08 10:11:19;;;;;;;13.20;4.18;;;9.20;82.90;;;;;;5026476;28;20026;-58
2023/03/08 10:13:49;;;;;;;17.17;5.18;;;9.20;83.30;;;;;;5025006;28;20084;-58
2023/03/08 10:16:27;;;;;;;34.58;6.43;;;9.30;83.60;;;;;;5024449;28;20041;-58
2023/03/08 10:18:58;;;;;;;22.95;5.40;;;9.30;83.80;;;;;;5044855;28;20032;-58
2023/03/08 10:21:25;;;;;;;55.80;7.50;;;9.30;84.00;;;;;;5043883;28;20103;-58
2023/03/08 10:24:11;;;;;;;28.08;6.13;;;9.30;84.10;;;;;;5043119;28;20033;-58
2023/03/08 10:26:36;;;;;;;29.95;6.00;;;9.30;84.20;;;;;;5043007;28;20519;-58
2023/03/08 10:29:02;;;;;;;18.58;4.60;;;9.30;84.10;;;;;;5044047;28;20021;-58
2023/03/08 10:31:29;;;;;;;19.23;4.68;;;9.30;84.10;;;;;;5045631;28;20025;-58
2023/03/08 10:34:13;;;;;;;33.60;6.43;;;9.30;84.10;;;;;;5045498;28;20454;-59
2023/03/08 10:36:55;;;;;;;43.05;7.50;;;9.40;84.10;;;;;;5044495;28;20049;-59
2023/03/08 10:39:21;;;;;;;72.57;10.40;;;9.40;84.20;;;;;;5042724;28;20029;-59
2023/03/08 10:41:54;;;;;;;334.52;32.70;;;9.40;84.40;;;;;;5044816;28;20093;-59
2023/03/08 10:44:59;;;;;;;49.67;10.00;;;9.40;84.40;;;;;;5025730;28;20030;-59
2023/03/08 10:47:35;;;;;;;46.03;9.05;;;9.40;84.50;;;;;;5023692;28;20045;-59
2023/03/08 10:50:18;;;;;;;45.38;7.50;;;9.50;84.90;;;;;;5024724;28;20041;-58
2023/03/08 10:52:44;;;;;;;100.55;11.85;;;9.50;84.90;;;;;;5039029;28;20037;-59
2023/03/08 10:55:27;;;;;;;45.63;8.70;;;9.50;84.80;;;;;;5045012;28;20033;-59
2023/03/08 10:57:56;;;;;;;84.90;10.80;;;9.50;84.70;;;;;;5043259;28;20030;-59
2023/03/08 11:00:35;;;;;;;60.05;10.43;;;9.60;84.80;;;;;;5044541;28;20021;-59
2023/03/08 11:03:02;;;;;;;76.30;12.82;;;9.60;85.30;;;;;;5045288;28;20038;-58
2023/03/08 11:05:28;;;;;;;86.93;12.40;;;9.60;85.50;;;;;;5044255;28;20055;-58
2023/03/08 11:07:55;;;;;;;87.95;12.48;;;9.60;85.50;;;;;;5043146;28;20053;-59
2023/03/08 11:10:25;;;;;;;204.68;25.27;;;9.60;85.60;;;;;;5041811;28;20026;-59
2023/03/08 11:13:01;;;;;;;108.25;17.00;;;9.60;85.90;;;;;;5042161;28;20117;-59
2023/03/08 11:15:26;;;;;;;135.50;16.55;;;9.70;86.30;;;;;;5044583;28;20093;-59
2023/03/08 11:18:11;;;;;;;130.25;16.08;;;9.60;86.70;;;;;;5043207;28;20036;-59
2023/03/08 11:20:48;;;;;;;205.93;23.67;;;9.70;86.50;;;;;;5044782;28;20025;-59
2023/03/08 11:23:32;;;;;;;113.75;16.13;;;9.70;86.70;;;;;;5042366;28;20029;-59
2023/03/08 11:26:20;;;;;;;286.92;31.05;;;9.70;86.60;;;;;;5026365;28;20052;-58
2023/03/08 11:29:04;;;;;;;94.28;12.77;;;9.70;86.80;;;;;;5042267;28;20139;-59
2023/03/08 11:31:44;;;;;;;96.32;13.65;;;9.70;87.00;;;;;;5043096;28;20057;-58
2023/03/08 11:34:15;;;;;;;107.25;15.00;;;9.70;87.10;;;;;;5043969;28;20022;-58
2023/03/08 11:37:03;;;;;;;102.03;14.48;;;9.70;88.10;;;;;;5043115;28;20431;-59
2023/03/08 11:39:34;;;;;;;108.25;13.50;;;9.80;87.70;;;;;;5043208;28;20040;-59
2023/03/08 11:42:25;;;;;;;105.65;15.90;;;9.80;87.90;;;;;;5041194;28;20042;-58
2023/03/08 11:45:03;;;;;;;97.32;14.80;;;9.80;88.00;;;;;;5042985;28;20022;-59
2023/03/08 11:47:49;;;;;;;104.97;14.63;;;9.80;88.20;;;;;;5043439;28;20068;-58
2023/03/08 11:50:21;;;;;;;203.70;20.50;;;9.90;88.30;;;;;;5042628;28;20076;-59
2023/03/08 11:53:18;;;;;;;346.00;39.15;;;9.90;88.50;;;;;;5042075;28;20087;-58
2023/03/08 11:56:03;;;;;;;116.70;15.73;;;9.90;88.60;;;;;;5038416;28;20120;-58
2023/03/08 11:58:45;;;;;;;136.48;19.25;;;9.90;88.70;;;;;;5040238;28;20114;-59
2023/03/08 12:01:36;;;;;;;95.78;14.77;;;10.00;88.70;;;;;;5041587;28;20180;-58
2023/03/08 12:04:09;;;;;;;95.28;15.55;;;10.00;88.70;;;;;;5040381;28;20030;-58
2023/03/08 12:06:38;;;;;;;132.80;16.67;;;10.00;88.70;;;;;;5036559;28;20055;-58
2023/03/08 12:09:13;;;;;;;126.13;17.63;;;10.10;89.50;;;;;;5039774;28;20049;-58
2023/03/08 12:11:45;;;;;;;125.47;16.53;;;10.10;89.10;;;;;;5038706;28;20030;-58
2023/03/08 12:14:17;;;;;;;62.90;10.73;;;10.20;89.30;;;;;;5039253;28;20272;-57
2023/03/08 12:16:55;;;;;;;89.45;11.38;;;10.20;89.40;;;;;;5033275;28;20041;-58
2023/03/08 12:19:29;;;;;;;124.25;17.00;;;10.20;89.20;;;;;;5023233;28;20096;-57
2023/03/08 12:22:32;;;;;;;120.57;16.30;;;10.20;89.30;;;;;;5043261;28;20047;-58
2023/03/08 12:25:18;;;;;;;111.10;16.45;;;10.30;89.50;;;;;;5043337;28;20045;-58
2023/03/08 12:28:00;;;;;;;;;;;10.30;89.60;;;;;;5045549;28;20092;-58
2023/03/08 12:30:38;;;;;;;127.82;16.45;;;10.30;90.00;;;;;;5048455;28;19909;-58
2023/03/08 12:33:04;;;;;;;135.60;17.27;;;10.40;89.90;;;;;;5038158;28;20088;-58
2023/03/08 12:35:36;;;;;;;101.90;15.20;;;10.50;90.10;;;;;;5047575;28;20026;-58
2023/03/08 12:38:14;;;;;;;111.00;14.57;;;10.50;90.00;;;;;;5027725;28;20026;-58
2023/03/08 12:40:45;;;;;;;108.75;14.35;;;10.60;90.10;;;;;;5047697;28;20060;-58
2023/03/08 12:43:12;;;;;;;102.45;13.85;;;10.60;90.00;;;;;;5041044;28;20033;-57
2023/03/08 12:45:39;;;;;;;138.50;16.40;;;10.60;90.10;;;;;;5033712;28;20044;-58
2023/03/08 12:48:04;;;;;;;131.35;16.92;;;10.70;90.20;;;;;;5037333;28;20038;-58
2023/03/08 12:51:12;;;;;;;160.73;20.55;;;10.70;90.30;;;;;;5027465;28;20060;-58